Punta Gorda Airport

Airport
ICAO code: 
KPGD
Summary
ICAO Region: 
NAM
Territory: 
Location: 
Punta Gorda, Florida,
Coordinates: 
Aerial View: 
26° 55' 7.853" N, 81° 59' 29.298" W
Metar
Observation
KPGD 021553Z 35007KT 10SM SCT025 BKN034 22/16 A3020 RMK AO2 SLP225 T02170156
Station
Punta Gorda, Charlotte County Airport
Date/Time
2021-12-02 15:53:00
Wind direction
350°
Wind speed
07 kts
Lowest cloud amount
scattered clouds
Temperature
21.7°C
Dew point
15.6°C
Humidity
68%
Weather condition
n/a

Description

Punta Gorda Airport is a public use airport located 6 km southeast of the central business district of Punta Gorda, in Charlotte County, Florida.

Climatology

Humid “subtropical” climate (Köppen climate classification Cfa) - characterized by hot, humid summers and cool winters. Significant amounts of precipitation occur in all seasons in most areas.

Runways

Designator Length Width Surface Rops
9/27 1399 46 ASP Yes/Yes
15/33 1446 46 ASP Yes/Yes
4/22 2041 46 ASPH-G Yes/Yes
Airport map: 
Aerial View: 

SKYbrary Partners:

Safety knowledge contributed by: